< < Back
Terminal Aerodrome Forecast


Current Version              Previous Versions:   1  2  3  4  5  6  7  8  9  

Terminal Aerodrome Forecast

184
FTUS42 KGSP 240531
TAFAND
TAF
KAND 240531Z 2406/2506 00000KT P6SM SCT250
      TEMPO 2410/2412 4SM BR
     FM241700 24006KT P6SM SCT250
     FM250200 VRB02KT P6SM SCT070=

Latest METAR

405
SAUS70 KWBC 250600 RRK
MTRAND
METAR KAND 250556Z AUTO 00000KT 10SM CLR 26/22 A3004 RMK AO2 SLP159
T02610217 10333 20261 57005


USA.gov is the U.S. government's official web portal to all federal, state and local government web resources and services.